sensor_id;sensor_type;location;lat;lon;timestamp;pressure;altitude;pressure_sealevel;temperature;humidity
71299;BME280;59083;47.974;21.722;2023-02-23T00:01:30;100597.53;;;4.65;76.26
71299;BME280;59083;47.974;21.722;2023-02-23T00:04:35;100611.16;;;4.61;76.58
71299;BME280;59083;47.974;21.722;2023-02-23T00:07:36;100611.44;;;4.57;76.69
71299;BME280;59083;47.974;21.722;2023-02-23T00:10:37;100614.47;;;4.63;77.10
71299;BME280;59083;47.974;21.722;2023-02-23T00:13:40;100612.97;;;4.60;76.77
71299;BME280;59083;47.974;21.722;2023-02-23T00:16:41;100616.69;;;4.57;77.22
71299;BME280;59083;47.974;21.722;2023-02-23T00:19:46;100613.78;;;4.61;77.00
71299;BME280;59083;47.974;21.722;2023-02-23T00:22:47;100623.13;;;4.55;77.16
71299;BME280;59083;47.974;21.722;2023-02-23T00:25:48;100614.47;;;4.63;76.87
71299;BME280;59083;47.974;21.722;2023-02-23T00:28:52;100616.84;;;4.66;76.70
71299;BME280;59083;47.974;21.722;2023-02-23T00:31:53;100617.00;;;4.54;77.12
71299;BME280;59083;47.974;21.722;2023-02-23T00:34:56;100612.78;;;4.62;76.98
71299;BME280;59083;47.974;21.722;2023-02-23T00:37:58;100609.50;;;4.60;76.92
71299;BME280;59083;47.974;21.722;2023-02-23T00:40:59;100606.28;;;4.66;76.54
71299;BME280;59083;47.974;21.722;2023-02-23T00:44:00;100608.62;;;4.69;76.48
71299;BME280;59083;47.974;21.722;2023-02-23T00:47:02;100604.44;;;4.76;75.77
71299;BME280;59083;47.974;21.722;2023-02-23T00:50:03;100607.78;;;4.78;76.09
71299;BME280;59083;47.974;21.722;2023-02-23T00:53:05;100603.47;;;4.77;75.67
71299;BME280;59083;47.974;21.722;2023-02-23T00:56:07;100617.44;;;4.87;75.25
71299;BME280;59083;47.974;21.722;2023-02-23T00:59:11;100609.41;;;4.79;75.30
71299;BME280;59083;47.974;21.722;2023-02-23T01:02:12;100611.06;;;4.80;75.08
71299;BME280;59083;47.974;21.722;2023-02-23T01:05:14;100614.59;;;4.71;76.17
71299;BME280;59083;47.974;21.722;2023-02-23T01:08:17;100612.78;;;4.62;76.64
71299;BME280;59083;47.974;21.722;2023-02-23T01:11:20;100612.12;;;4.50;77.28
71299;BME280;59083;47.974;21.722;2023-02-23T01:14:22;100603.41;;;4.49;77.79
71299;BME280;59083;47.974;21.722;2023-02-23T01:17:23;100603.97;;;4.43;77.79
71299;BME280;59083;47.974;21.722;2023-02-23T01:20:25;100612.12;;;4.50;77.42
71299;BME280;59083;47.974;21.722;2023-02-23T01:23:26;100614.25;;;4.46;77.85
71299;BME280;59083;47.974;21.722;2023-02-23T01:26:29;100609.81;;;4.37;77.87
71299;BME280;59083;47.974;21.722;2023-02-23T01:29:32;100606.87;;;4.40;77.55
71299;BME280;59083;47.974;21.722;2023-02-23T01:32:35;100610.09;;;4.44;77.23
71299;BME280;59083;47.974;21.722;2023-02-23T01:35:37;100597.31;;;4.39;77.40
71299;BME280;59083;47.974;21.722;2023-02-23T01:38:38;100600.94;;;4.38;77.36
71299;BME280;59083;47.974;21.722;2023-02-23T01:41:40;100611.34;;;4.49;77.05
71299;BME280;59083;47.974;21.722;2023-02-23T01:47:46;100596.47;;;4.39;77.95
71299;BME280;59083;47.974;21.722;2023-02-23T01:50:52;100600.09;;;4.28;78.27
71299;BME280;59083;47.974;21.722;2023-02-23T01:53:59;100608.03;;;4.19;78.40
71299;BME280;59083;47.974;21.722;2023-02-23T01:57:02;100595.25;;;4.24;78.82
71299;BME280;59083;47.974;21.722;2023-02-23T02:00:06;100596.66;;;4.18;78.89
71299;BME280;59083;47.974;21.722;2023-02-23T02:03:25;100597.91;;;4.14;78.83
71299;BME280;59083;47.974;21.722;2023-02-23T02:06:28;100594.47;;;4.04;79.33
71299;BME280;59083;47.974;21.722;2023-02-23T02:09:30;100587.94;;;4.08;79.19
71299;BME280;59083;47.974;21.722;2023-02-23T02:12:43;100593.47;;;4.05;78.98
71299;BME280;59083;47.974;21.722;2023-02-23T02:16:06;100598.62;;;3.97;79.67
71299;BME280;59083;47.974;21.722;2023-02-23T02:22:32;100602.66;;;4.01;79.26
71299;BME280;59083;47.974;21.722;2023-02-23T02:36:03;100585.59;;;3.86;79.83
71299;BME280;59083;47.974;21.722;2023-02-23T02:39:38;100582.69;;;3.79;80.00
71299;BME280;59083;47.974;21.722;2023-02-23T02:43:22;100594.47;;;3.75;79.97
71299;BME280;59083;47.974;21.722;2023-02-23T02:46:37;100599.03;;;3.63;80.73
71299;BME280;59083;47.974;21.722;2023-02-23T02:49:50;100600.13;;;3.51;81.04
71299;BME280;59083;47.974;21.722;2023-02-23T02:53:09;100594.28;;;3.48;81.18
71299;BME280;59083;47.974;21.722;2023-02-23T02:56:17;100597.91;;;3.47;80.84
71299;BME280;59083;47.974;21.722;2023-02-23T02:59:19;100589.44;;;3.43;80.75
71299;BME280;59083;47.974;21.722;2023-02-23T03:02:40;100593.03;;;3.32;81.20
71299;BME280;59083;47.974;21.722;2023-02-23T03:05:59;100600.38;;;3.29;81.45
71299;BME280;59083;47.974;21.722;2023-02-23T03:20:45;100610.00;;;3.09;82.04
71299;BME280;59083;47.974;21.722;2023-02-23T03:24:21;100598.09;;;3.05;82.26
71299;BME280;59083;47.974;21.722;2023-02-23T03:27:53;100603.06;;;2.99;82.40
71299;BME280;59083;47.974;21.722;2023-02-23T03:31:22;100600.84;;;3.04;82.20
71299;BME280;59083;47.974;21.722;2023-02-23T03:34:53;100611.66;;;3.01;82.33
71299;BME280;59083;47.974;21.722;2023-02-23T03:38:24;100603.59;;;2.92;83.20
71299;BME280;59083;47.974;21.722;2023-02-23T03:41:49;100610.78;;;2.90;83.04
71299;BME280;59083;47.974;21.722;2023-02-23T03:45:16;100611.56;;;2.81;83.51
71299;BME280;59083;47.974;21.722;2023-02-23T03:48:39;100608.22;;;2.79;84.09
71299;BME280;59083;47.974;21.722;2023-02-23T03:52:07;100602.81;;;2.71;84.45
71299;BME280;59083;47.974;21.722;2023-02-23T03:55:33;100609.75;;;2.72;84.29
71299;BME280;59083;47.974;21.722;2023-02-23T03:58:58;100604.62;;;2.80;83.67
71299;BME280;59083;47.974;21.722;2023-02-23T04:02:20;100618.50;;;2.82;83.94
71299;BME280;59083;47.974;21.722;2023-02-23T04:05:43;100607.44;;;2.79;83.47
71299;BME280;59083;47.974;21.722;2023-02-23T04:09:05;100613.50;;;2.79;83.45
71299;BME280;59083;47.974;21.722;2023-02-23T04:12:50;100609.47;;;2.75;83.69
71299;BME280;59083;47.974;21.722;2023-02-23T04:16:13;100606.69;;;2.67;84.09
71299;BME280;59083;47.974;21.722;2023-02-23T04:19:15;100607.38;;;2.69;84.04
71299;BME280;59083;47.974;21.722;2023-02-23T04:22:16;100618.69;;;2.60;84.66
71299;BME280;59083;47.974;21.722;2023-02-23T04:25:18;100610.09;;;2.58;84.54
71299;BME280;59083;47.974;21.722;2023-02-23T04:28:24;100612.28;;;2.53;85.19
71299;BME280;59083;47.974;21.722;2023-02-23T04:31:25;100610.88;;;2.49;85.31
71299;BME280;59083;47.974;21.722;2023-02-23T04:34:26;100616.25;;;2.47;85.50
71299;BME280;59083;47.974;21.722;2023-02-23T04:37:28;100616.66;;;2.43;85.75
71299;BME280;59083;47.974;21.722;2023-02-23T04:40:29;100621.62;;;2.46;85.35
71299;BME280;59083;47.974;21.722;2023-02-23T04:43:31;100607.81;;;2.44;85.62
71299;BME280;59083;47.974;21.722;2023-02-23T04:46:32;100625.06;;;2.37;86.04
71299;BME280;59083;47.974;21.722;2023-02-23T04:49:33;100622.16;;;2.40;85.60
71299;BME280;59083;47.974;21.722;2023-02-23T04:52:34;100624.59;;;2.32;86.78
71299;BME280;59083;47.974;21.722;2023-02-23T04:55:37;100622.94;;;2.31;86.57
71299;BME280;59083;47.974;21.722;2023-02-23T04:58:38;100616.13;;;2.28;87.17
71299;BME280;59083;47.974;21.722;2023-02-23T05:01:40;100610.19;;;2.26;86.73
71299;BME280;59083;47.974;21.722;2023-02-23T05:04:41;100614.34;;;2.29;86.76
71299;BME280;59083;47.974;21.722;2023-02-23T05:07:42;100617.94;;;2.28;86.73
71299;BME280;59083;47.974;21.722;2023-02-23T05:10:44;100616.78;;;2.21;87.36
71299;BME280;59083;47.974;21.722;2023-02-23T05:13:46;100611.97;;;2.26;86.88
71299;BME280;59083;47.974;21.722;2023-02-23T05:16:47;100631.09;;;2.28;86.69
71299;BME280;59083;47.974;21.722;2023-02-23T05:19:48;100623.44;;;2.25;87.00
71299;BME280;59083;47.974;21.722;2023-02-23T05:22:49;100618.47;;;2.22;87.16
71299;BME280;59083;47.974;21.722;2023-02-23T05:25:51;100623.00;;;2.20;87.03
71299;BME280;59083;47.974;21.722;2023-02-23T05:28:52;100629.94;;;2.21;87.00
71299;BME280;59083;47.974;21.722;2023-02-23T05:31:53;100632.69;;;2.19;86.97
71299;BME280;59083;47.974;21.722;2023-02-23T05:34:54;100627.53;;;2.18;87.73
71299;BME280;59083;47.974;21.722;2023-02-23T05:37:56;100632.78;;;2.18;87.36
71299;BME280;59083;47.974;21.722;2023-02-23T05:40:57;100633.84;;;2.26;87.12
71299;BME280;59083;47.974;21.722;2023-02-23T05:43:58;100642.06;;;2.33;86.89
71299;BME280;59083;47.974;21.722;2023-02-23T05:46:59;100635.56;;;2.37;86.65
71299;BME280;59083;47.974;21.722;2023-02-23T05:50:01;100639.59;;;2.41;86.65
71299;BME280;59083;47.974;21.722;2023-02-23T05:53:02;100644.09;;;2.50;86.62
71299;BME280;59083;47.974;21.722;2023-02-23T05:56:06;100645.38;;;2.56;86.67
71299;BME280;59083;47.974;21.722;2023-02-23T05:59:08;100646.16;;;2.67;85.95
71299;BME280;59083;47.974;21.722;2023-02-23T06:02:09;100653.87;;;2.69;86.28
71299;BME280;59083;47.974;21.722;2023-02-23T06:05:11;100656.44;;;2.80;85.46
71299;BME280;59083;47.974;21.722;2023-02-23T06:08:13;100658.22;;;3.00;84.74
71299;BME280;59083;47.974;21.722;2023-02-23T06:11:15;100668.00;;;3.19;83.79
71299;BME280;59083;47.974;21.722;2023-02-23T06:14:16;100669.38;;;3.23;83.45
71299;BME280;59083;47.974;21.722;2023-02-23T06:17:17;100675.56;;;3.52;82.29
71299;BME280;59083;47.974;21.722;2023-02-23T06:20:18;100678.66;;;3.77;81.35
71299;BME280;59083;47.974;21.722;2023-02-23T06:23:20;100679.22;;;3.90;80.99
71299;BME280;59083;47.974;21.722;2023-02-23T06:26:21;100683.00;;;3.97;80.59
71299;BME280;59083;47.974;21.722;2023-02-23T06:29:23;100678.69;;;3.96;79.95
71299;BME280;59083;47.974;21.722;2023-02-23T06:32:24;100682.41;;;3.84;80.37
71299;BME280;59083;47.974;21.722;2023-02-23T06:35:27;100685.34;;;3.81;80.89
71299;BME280;59083;47.974;21.722;2023-02-23T06:38:28;100691.72;;;3.88;80.50
71299;BME280;59083;47.974;21.722;2023-02-23T06:41:31;100693.66;;;3.95;80.19
71299;BME280;59083;47.974;21.722;2023-02-23T06:44:32;100695.22;;;3.98;79.75
71299;BME280;59083;47.974;21.722;2023-02-23T06:47:35;100696.03;;;4.08;79.13
71299;BME280;59083;47.974;21.722;2023-02-23T06:50:36;100695.50;;;4.24;78.78
71299;BME280;59083;47.974;21.722;2023-02-23T06:53:38;100697.84;;;4.36;78.55
71299;BME280;59083;47.974;21.722;2023-02-23T06:56:39;100702.59;;;4.33;77.90
71299;BME280;59083;47.974;21.722;2023-02-23T06:59:40;100692.97;;;4.41;77.62
71299;BME280;59083;47.974;21.722;2023-02-23T07:02:42;100700.91;;;4.41;77.01
71299;BME280;59083;47.974;21.722;2023-02-23T07:05:44;100699.47;;;4.56;77.18
71299;BME280;59083;47.974;21.722;2023-02-23T07:08:46;100698.09;;;4.72;76.67
71299;BME280;59083;47.974;21.722;2023-02-23T07:11:47;100696.53;;;4.79;75.95
71299;BME280;59083;47.974;21.722;2023-02-23T07:14:48;100679.72;;;4.80;75.22
71299;BME280;59083;47.974;21.722;2023-02-23T07:17:49;100697.19;;;5.00;75.04
71299;BME280;59083;47.974;21.722;2023-02-23T07:20:52;100702.16;;;5.03;74.49
71299;BME280;59083;47.974;21.722;2023-02-23T07:23:53;100703.97;;;5.03;74.96
71299;BME280;59083;47.974;21.722;2023-02-23T07:26:54;100700.75;;;5.09;74.34
71299;BME280;59083;47.974;21.722;2023-02-23T07:29:56;100697.97;;;5.10;73.97
71299;BME280;59083;47.974;21.722;2023-02-23T07:32:57;100700.12;;;5.24;73.87
71299;BME280;59083;47.974;21.722;2023-02-23T07:35:59;100692.31;;;5.32;73.26
71299;BME280;59083;47.974;21.722;2023-02-23T07:39:03;100694.53;;;5.37;72.64
71299;BME280;59083;47.974;21.722;2023-02-23T07:42:05;100699.16;;;5.53;71.51
71299;BME280;59083;47.974;21.722;2023-02-23T07:45:06;100688.31;;;5.56;71.00
71299;BME280;59083;47.974;21.722;2023-02-23T07:48:08;100694.00;;;5.61;70.04
71299;BME280;59083;47.974;21.722;2023-02-23T07:51:11;100698.22;;;5.71;70.14
71299;BME280;59083;47.974;21.722;2023-02-23T07:54:13;100697.13;;;5.74;68.68
71299;BME280;59083;47.974;21.722;2023-02-23T07:57:15;100691.59;;;5.67;67.70
71299;BME280;59083;47.974;21.722;2023-02-23T08:00:17;100694.37;;;5.66;67.60
71299;BME280;59083;47.974;21.722;2023-02-23T08:03:18;100699.72;;;5.56;69.33
71299;BME280;59083;47.974;21.722;2023-02-23T08:06:19;100694.47;;;5.74;68.03
71299;BME280;59083;47.974;21.722;2023-02-23T08:09:21;100696.53;;;5.80;68.54
71299;BME280;59083;47.974;21.722;2023-02-23T08:12:22;100699.22;;;5.98;67.77
71299;BME280;59083;47.974;21.722;2023-02-23T08:15:23;100696.62;;;5.88;67.14
71299;BME280;59083;47.974;21.722;2023-02-23T08:18:25;100698.91;;;6.01;66.28
71299;BME280;59083;47.974;21.722;2023-02-23T08:21:28;100693.53;;;6.10;66.07
71299;BME280;59083;47.974;21.722;2023-02-23T08:24:29;100698.41;;;5.97;66.87
71299;BME280;59083;47.974;21.722;2023-02-23T08:27:36;100699.28;;;6.23;66.44
71299;BME280;59083;47.974;21.722;2023-02-23T08:30:37;100706.78;;;6.28;65.97
71299;BME280;59083;47.974;21.722;2023-02-23T08:33:39;100702.53;;;6.35;66.37
71299;BME280;59083;47.974;21.722;2023-02-23T08:36:40;100702.09;;;6.40;65.58
71299;BME280;59083;47.974;21.722;2023-02-23T08:39:42;100695.59;;;6.34;65.44
71299;BME280;59083;47.974;21.722;2023-02-23T08:42:44;100703.38;;;6.36;64.60
71299;BME280;59083;47.974;21.722;2023-02-23T08:45:46;100697.28;;;6.61;64.59
71299;BME280;59083;47.974;21.722;2023-02-23T08:48:47;100708.81;;;6.52;64.74
71299;BME280;59083;47.974;21.722;2023-02-23T08:51:49;100708.37;;;6.82;64.53
71299;BME280;59083;47.974;21.722;2023-02-23T08:54:50;100710.41;;;6.88;63.71
71299;BME280;59083;47.974;21.722;2023-02-23T08:57:51;100703.88;;;7.00;63.53
71299;BME280;59083;47.974;21.722;2023-02-23T09:00:52;100698.16;;;6.87;62.98
71299;BME280;59083;47.974;21.722;2023-02-23T09:03:54;100705.69;;;7.00;63.02
71299;BME280;59083;47.974;21.722;2023-02-23T09:06:55;100710.59;;;7.21;62.13
71299;BME280;59083;47.974;21.722;2023-02-23T09:09:57;100708.09;;;7.19;61.51
71299;BME280;59083;47.974;21.722;2023-02-23T09:12:58;100705.16;;;7.30;61.66
71299;BME280;59083;47.974;21.722;2023-02-23T09:15:59;100708.16;;;7.35;61.59
71299;BME280;59083;47.974;21.722;2023-02-23T09:19:02;100709.28;;;7.25;61.87
71299;BME280;59083;47.974;21.722;2023-02-23T09:22:03;100710.75;;;7.53;60.82
71299;BME280;59083;47.974;21.722;2023-02-23T09:25:05;100705.78;;;7.58;60.38
71299;BME280;59083;47.974;21.722;2023-02-23T09:28:06;100700.78;;;7.47;59.96
71299;BME280;59083;47.974;21.722;2023-02-23T09:31:10;100705.31;;;7.63;57.80
71299;BME280;59083;47.974;21.722;2023-02-23T09:34:11;100709.19;;;7.84;58.14
71299;BME280;59083;47.974;21.722;2023-02-23T09:37:13;100704.72;;;7.85;56.68
71299;BME280;59083;47.974;21.722;2023-02-23T09:40:18;100706.25;;;8.04;56.27
71299;BME280;59083;47.974;21.722;2023-02-23T09:47:19;100704.59;;;8.11;55.69
71299;BME280;59083;47.974;21.722;2023-02-23T09:50:26;100701.47;;;8.23;55.52
71299;BME280;59083;47.974;21.722;2023-02-23T09:56:37;100712.44;;;8.28;54.65
71299;BME280;59083;47.974;21.722;2023-02-23T09:59:40;100702.03;;;8.35;54.65
71299;BME280;59083;47.974;21.722;2023-02-23T10:03:10;100713.97;;;8.55;54.36
71299;BME280;59083;47.974;21.722;2023-02-23T10:06:13;100714.31;;;8.52;54.65
71299;BME280;59083;47.974;21.722;2023-02-23T10:09:40;100702.34;;;8.73;55.00
71299;BME280;59083;47.974;21.722;2023-02-23T10:12:56;100703.66;;;8.85;54.21
71299;BME280;59083;47.974;21.722;2023-02-23T10:16:05;100698.16;;;8.94;53.79
71299;BME280;59083;47.974;21.722;2023-02-23T10:22:43;100703.62;;;9.01;51.89
71299;BME280;59083;47.974;21.722;2023-02-23T10:25:48;100703.00;;;8.83;53.01
71299;BME280;59083;47.974;21.722;2023-02-23T10:28:53;100698.81;;;9.04;52.92
71299;BME280;59083;47.974;21.722;2023-02-23T10:32:01;100693.66;;;9.03;51.90
71299;BME280;59083;47.974;21.722;2023-02-23T10:35:11;100691.00;;;9.11;52.07
71299;BME280;59083;47.974;21.722;2023-02-23T10:38:17;100690.63;;;9.14;51.71
71299;BME280;59083;47.974;21.722;2023-02-23T10:41:18;100687.28;;;9.20;52.23
71299;BME280;59083;47.974;21.722;2023-02-23T10:44:25;100681.69;;;9.07;52.05
71299;BME280;59083;47.974;21.722;2023-02-23T10:47:30;100680.47;;;9.26;51.80
71299;BME280;59083;47.974;21.722;2023-02-23T10:50:35;100667.63;;;9.37;51.51
71299;BME280;59083;47.974;21.722;2023-02-23T10:53:37;100686.53;;;9.50;51.16
71299;BME280;59083;47.974;21.722;2023-02-23T10:56:45;100671.50;;;9.58;51.03
71299;BME280;59083;47.974;21.722;2023-02-23T11:00:29;100662.97;;;9.70;50.97
71299;BME280;59083;47.974;21.722;2023-02-23T11:03:34;100668.47;;;9.69;50.71
71299;BME280;59083;47.974;21.722;2023-02-23T11:06:37;100658.88;;;9.60;50.95
71299;BME280;59083;47.974;21.722;2023-02-23T11:09:39;100644.03;;;9.65;51.03
71299;BME280;59083;47.974;21.722;2023-02-23T11:12:41;100649.81;;;9.69;51.12
71299;BME280;59083;47.974;21.722;2023-02-23T11:15:42;100654.53;;;9.59;51.21
71299;BME280;59083;47.974;21.722;2023-02-23T11:19:04;100647.88;;;9.63;51.26
71299;BME280;59083;47.974;21.722;2023-02-23T11:22:18;100637.19;;;9.71;50.81
71299;BME280;59083;47.974;21.722;2023-02-23T11:25:30;100635.91;;;9.59;50.84
71299;BME280;59083;47.974;21.722;2023-02-23T11:28:34;100636.31;;;9.78;51.10
71299;BME280;59083;47.974;21.722;2023-02-23T11:31:37;100627.50;;;9.78;50.92
71299;BME280;59083;47.974;21.722;2023-02-23T11:34:41;100628.81;;;9.82;50.47
71299;BME280;59083;47.974;21.722;2023-02-23T11:37:48;100627.50;;;9.78;50.59
71299;BME280;59083;47.974;21.722;2023-02-23T11:41:04;100625.44;;;9.88;51.63
71299;BME280;59083;47.974;21.722;2023-02-23T11:44:18;100617.06;;;9.91;50.97
71299;BME280;59083;47.974;21.722;2023-02-23T11:47:21;100621.78;;;9.89;51.42
71299;BME280;59083;47.974;21.722;2023-02-23T11:50:29;100617.91;;;9.91;51.60
71299;BME280;59083;47.974;21.722;2023-02-23T11:53:44;100612.38;;;10.01;51.12
71299;BME280;59083;47.974;21.722;2023-02-23T11:56:47;100610.00;;;10.06;50.82
71299;BME280;59083;47.974;21.722;2023-02-23T11:59:55;100609.63;;;10.09;51.05
71299;BME280;59083;47.974;21.722;2023-02-23T12:02:59;100610.94;;;10.13;50.48
71299;BME280;59083;47.974;21.722;2023-02-23T12:06:01;100602.34;;;10.03;50.38
71299;BME280;59083;47.974;21.722;2023-02-23T12:09:27;100604.94;;;10.19;50.39
71299;BME280;59083;47.974;21.722;2023-02-23T12:12:39;100602.91;;;10.21;50.48
71299;BME280;59083;47.974;21.722;2023-02-23T12:22:13;100594.91;;;10.21;49.85
71299;BME280;59083;47.974;21.722;2023-02-23T12:25:26;100595.28;;;10.18;50.94
71299;BME280;59083;47.974;21.722;2023-02-23T12:28:36;100594.53;;;10.47;50.43
71299;BME280;59083;47.974;21.722;2023-02-23T12:31:46;100597.81;;;10.34;50.32
71299;BME280;59083;47.974;21.722;2023-02-23T12:34:57;100587.59;;;10.23;49.82
71299;BME280;59083;47.974;21.722;2023-02-23T12:38:07;100583.25;;;10.22;50.25
71299;BME280;59083;47.974;21.722;2023-02-23T12:41:19;100588.59;;;10.22;50.45
71299;BME280;59083;47.974;21.722;2023-02-23T12:44:45;100578.31;;;10.19;50.66
71299;BME280;59083;47.974;21.722;2023-02-23T12:48:13;100573.16;;;10.32;50.73
71299;BME280;59083;47.974;21.722;2023-02-23T12:51:24;100564.19;;;10.11;51.41
71299;BME280;59083;47.974;21.722;2023-02-23T12:54:28;100567.41;;;10.06;51.64
71299;BME280;59083;47.974;21.722;2023-02-23T12:57:43;100574.62;;;10.20;51.40
71299;BME280;59083;47.974;21.722;2023-02-23T13:04:31;100564.62;;;10.37;51.80
71299;BME280;59083;47.974;21.722;2023-02-23T13:07:47;100545.91;;;10.30;51.84
71299;BME280;59083;47.974;21.722;2023-02-23T13:10:57;100563.25;;;10.26;52.09
71299;BME280;59083;47.974;21.722;2023-02-23T13:17:36;100559.78;;;10.41;51.49
71299;BME280;59083;47.974;21.722;2023-02-23T13:21:25;100559.22;;;10.30;51.83
71299;BME280;59083;47.974;21.722;2023-02-23T13:24:34;100550.91;;;10.25;52.27
71299;BME280;59083;47.974;21.722;2023-02-23T13:27:40;100564.91;;;10.27;52.54
71299;BME280;59083;47.974;21.722;2023-02-23T13:30:42;100561.94;;;10.22;52.44
71299;BME280;59083;47.974;21.722;2023-02-23T13:33:47;100564.62;;;10.22;52.42
71299;BME280;59083;47.974;21.722;2023-02-23T13:36:50;100556.81;;;9.98;52.67
71299;BME280;59083;47.974;21.722;2023-02-23T13:39:55;100557.69;;;10.13;52.91
71299;BME280;59083;47.974;21.722;2023-02-23T13:52:32;100551.03;;;10.09;52.65
71299;BME280;59083;47.974;21.722;2023-02-23T13:56:07;100540.28;;;10.03;53.10
71299;BME280;59083;47.974;21.722;2023-02-23T13:59:26;100554.19;;;10.13;53.17
71299;BME280;59083;47.974;21.722;2023-02-23T14:02:51;100546.38;;;10.11;53.53
71299;BME280;59083;47.974;21.722;2023-02-23T14:05:56;100544.81;;;10.02;53.48
71299;BME280;59083;47.974;21.722;2023-02-23T14:09:10;100531.38;;;9.95;53.40
71299;BME280;59083;47.974;21.722;2023-02-23T14:12:16;100537.81;;;10.01;53.42
71299;BME280;59083;47.974;21.722;2023-02-23T14:18:31;100534.50;;;9.99;53.34
71299;BME280;59083;47.974;21.722;2023-02-23T14:21:42;100530.47;;;10.03;53.32
71299;BME280;59083;47.974;21.722;2023-02-23T14:24:44;100532.97;;;9.82;53.96
71299;BME280;59083;47.974;21.722;2023-02-23T14:27:45;100531.97;;;9.83;54.36
71299;BME280;59083;47.974;21.722;2023-02-23T14:30:59;100535.47;;;9.83;54.49
71299;BME280;59083;47.974;21.722;2023-02-23T14:34:12;100529.66;;;9.80;54.93
71299;BME280;59083;47.974;21.722;2023-02-23T14:37:36;100530.03;;;9.77;55.23
71299;BME280;59083;47.974;21.722;2023-02-23T14:40:40;100526.25;;;9.71;55.39
71299;BME280;59083;47.974;21.722;2023-02-23T14:43:43;100529.44;;;9.67;55.48
71299;BME280;59083;47.974;21.722;2023-02-23T14:49:54;100533.81;;;9.60;56.05
71299;BME280;59083;47.974;21.722;2023-02-23T14:52:56;100523.53;;;9.57;56.31
71299;BME280;59083;47.974;21.722;2023-02-23T14:55:58;100520.56;;;9.51;56.12
71299;BME280;59083;47.974;21.722;2023-02-23T14:58:59;100524.25;;;9.50;56.24
71299;BME280;59083;47.974;21.722;2023-02-23T15:02:07;100518.94;;;9.50;56.26
71299;BME280;59083;47.974;21.722;2023-02-23T15:05:16;100520.94;;;9.48;56.25
71299;BME280;59083;47.974;21.722;2023-02-23T15:08:22;100511.13;;;9.49;56.54
71299;BME280;59083;47.974;21.722;2023-02-23T15:11:24;100515.94;;;9.45;56.72
71299;BME280;59083;47.974;21.722;2023-02-23T15:14:25;100507.69;;;9.40;57.45
71299;BME280;59083;47.974;21.722;2023-02-23T15:17:30;100506.38;;;9.36;56.93
71299;BME280;59083;47.974;21.722;2023-02-23T15:20:33;100507.09;;;9.30;57.56
71299;BME280;59083;47.974;21.722;2023-02-23T15:23:36;100509.44;;;9.25;57.60
71299;BME280;59083;47.974;21.722;2023-02-23T15:26:40;100500.47;;;9.26;57.27
71299;BME280;59083;47.974;21.722;2023-02-23T15:29:43;100508.84;;;9.15;58.00
71299;BME280;59083;47.974;21.722;2023-02-23T15:32:45;100503.41;;;9.08;58.19
71299;BME280;59083;47.974;21.722;2023-02-23T15:35:51;100498.78;;;9.02;58.23
71299;BME280;59083;47.974;21.722;2023-02-23T15:38:55;100500.31;;;8.97;58.63
71299;BME280;59083;47.974;21.722;2023-02-23T15:41:58;100498.69;;;8.88;59.04
71299;BME280;59083;47.974;21.722;2023-02-23T15:45:01;100499.88;;;8.85;59.17
71299;BME280;59083;47.974;21.722;2023-02-23T15:48:07;100493.78;;;8.77;58.98
71299;BME280;59083;47.974;21.722;2023-02-23T15:51:20;100502.75;;;8.67;59.28
71299;BME280;59083;47.974;21.722;2023-02-23T15:54:27;100495.16;;;8.56;59.77
71299;BME280;59083;47.974;21.722;2023-02-23T15:57:52;100493.56;;;8.47;60.63
71299;BME280;59083;47.974;21.722;2023-02-23T16:00:56;100496.22;;;8.39;60.61
71299;BME280;59083;47.974;21.722;2023-02-23T16:04:06;100496.25;;;8.31;61.08
71299;BME280;59083;47.974;21.722;2023-02-23T16:10:22;100491.75;;;8.23;61.34
71299;BME280;59083;47.974;21.722;2023-02-23T16:13:24;100496.22;;;8.23;61.94
71299;BME280;59083;47.974;21.722;2023-02-23T16:16:27;100489.94;;;8.16;61.91
71299;BME280;59083;47.974;21.722;2023-02-23T16:19:28;100489.94;;;8.16;62.03
71299;BME280;59083;47.974;21.722;2023-02-23T16:22:30;100492.94;;;8.13;62.02
71299;BME280;59083;47.974;21.722;2023-02-23T16:25:32;100488.94;;;8.09;62.06
71299;BME280;59083;47.974;21.722;2023-02-23T16:28:35;100486.12;;;8.10;61.93
71299;BME280;59083;47.974;21.722;2023-02-23T16:34:55;100488.28;;;8.15;61.74
71299;BME280;59083;47.974;21.722;2023-02-23T16:38:08;100488.63;;;8.12;62.02
71299;BME280;59083;47.974;21.722;2023-02-23T16:41:18;100484.00;;;8.06;62.12
71299;BME280;59083;47.974;21.722;2023-02-23T16:44:21;100492.31;;;8.03;62.01
71299;BME280;59083;47.974;21.722;2023-02-23T16:50:24;100495.97;;;7.85;63.02
71299;BME280;59083;47.974;21.722;2023-02-23T16:53:25;100487.31;;;7.75;63.56
71299;BME280;59083;47.974;21.722;2023-02-23T16:56:26;100493.28;;;7.69;63.50
71299;BME280;59083;47.974;21.722;2023-02-23T16:59:28;100500.91;;;7.64;63.95
71299;BME280;59083;47.974;21.722;2023-02-23T17:02:29;100497.94;;;7.59;64.89
71299;BME280;59083;47.974;21.722;2023-02-23T17:05:31;100493.94;;;7.47;66.16
71299;BME280;59083;47.974;21.722;2023-02-23T17:08:33;100497.09;;;7.42;66.12
71299;BME280;59083;47.974;21.722;2023-02-23T17:11:38;100494.28;;;7.36;65.92
71299;BME280;59083;47.974;21.722;2023-02-23T17:14:39;100497.56;;;7.30;66.73
71299;BME280;59083;47.974;21.722;2023-02-23T17:17:40;100500.22;;;7.22;67.55
71299;BME280;59083;47.974;21.722;2023-02-23T17:20:41;100496.72;;;7.13;68.46
71299;BME280;59083;47.974;21.722;2023-02-23T17:23:43;100502.50;;;7.00;69.11
71299;BME280;59083;47.974;21.722;2023-02-23T17:26:53;100498.84;;;6.93;69.94
71299;BME280;59083;47.974;21.722;2023-02-23T17:29:55;100491.19;;;6.82;70.36